Dayton, OH (45402)

1:26 AM EDT on August 30, 2016 (GMT -0400)
Oregon Historic District | | Change Station

Elev 745 ft 39.75 °N, 84.18 °W | Updated 27 seconds ago

Clear
Clear
76.1 °F
Feels Like 77 °F
N
0.0
Wind Variable Wind from SE
Gusts 0.0 mph

Today
High -- | Low -- °F
--% Chance of Precip.
Yesterday
High -- | Low -- °F
Precip. -- in
Pressure 30.17 in
Visibility 10.0 miles
Clouds Clear
Heat Index 77 °F
Dew Point 70 °F
Humidity 82%
Rainfall in
Snow Depth Not available.
7:03 AM 8:10 PM
Waning Crescent, 5% visible
METAR KFFO 300458Z AUTO 02003KT 10SM CLR 23/21 A3018 RMK AO2 SLP216 T02270205 403110189
Pressure 30.17 in
Visibility 10.0 miles
Clouds Clear
Heat Index 77 °F
Dew Point 70 °F
Humidity 82%
Rainfall in
Snow Depth Not available.
7:03 AM 8:10 PM
Waning Crescent, 5% visible
METAR KFFO 300458Z AUTO 02003KT 10SM CLR 23/21 A3018 RMK AO2 SLP216 T02270205 403110189

10-Day Weather Forecast

Almanac

Astronomy

Aug. 30, 2016 Rise Set
Actual Time
Civil Twilight
Nautical Twilight
Astronomical Twilight
Moon
Length of Visible Light
Length of Day
Tomorrow will be .
, % of the Moon is Illuminated

Today's Extremes

State Highs State Lows

Community

WunderPhotos

Upload Photos

1,935,793 photos uploaded!

WunderBlog® & News

Nearby

Air Quality

  Air Quality AQ Index Pollutant
Not available.

Snow Depth

Station Depth Elevation

Earthquake Activity

City Distance Mag. Time & Date
Minimum magnitude displayed is 2.5.

Coastal Water Temperatures

Place Temperature

Stations

Nearby Weather Stations

Station Location Temp. Windchill Dew Point Humidity Wind Precip. Elev Updated Type
                   

Watches & Warnings

There are currently no watches in effect.